sensor_id;sensor_type;location;lat;lon;timestamp;P1;durP1;ratioP1;P2;durP2;ratioP2
25627;SDS011;40915;50.826;4.356;2024-03-02T00:00:21;0.43;;;0.40;;
25627;SDS011;40915;50.826;4.356;2024-03-02T00:02:48;1.13;;;0.73;;
25627;SDS011;40915;50.826;4.356;2024-03-02T00:05:15;1.20;;;0.60;;
25627;SDS011;40915;50.826;4.356;2024-03-02T00:07:42;0.70;;;0.50;;
25627;SDS011;40915;50.826;4.356;2024-03-02T00:10:09;1.00;;;0.50;;
25627;SDS011;40915;50.826;4.356;2024-03-02T00:12:35;0.90;;;0.50;;
25627;SDS011;40915;50.826;4.356;2024-03-02T00:15:03;1.77;;;0.50;;
25627;SDS011;40915;50.826;4.356;2024-03-02T00:17:30;0.60;;;0.40;;
25627;SDS011;40915;50.826;4.356;2024-03-02T00:19:56;1.83;;;0.40;;
25627;SDS011;40915;50.826;4.356;2024-03-02T00:22:22;1.80;;;0.47;;
25627;SDS011;40915;50.826;4.356;2024-03-02T00:24:48;1.43;;;0.50;;
25627;SDS011;40915;50.826;4.356;2024-03-02T00:27:14;0.47;;;0.40;;
25627;SDS011;40915;50.826;4.356;2024-03-02T00:29:40;0.40;;;0.30;;
25627;SDS011;40915;50.826;4.356;2024-03-02T00:32:13;0.40;;;0.40;;
25627;SDS011;40915;50.826;4.356;2024-03-02T00:34:41;0.73;;;0.43;;
25627;SDS011;40915;50.826;4.356;2024-03-02T00:37:07;1.53;;;0.40;;
25627;SDS011;40915;50.826;4.356;2024-03-02T00:39:33;1.00;;;0.60;;
25627;SDS011;40915;50.826;4.356;2024-03-02T00:42:00;0.37;;;0.37;;
25627;SDS011;40915;50.826;4.356;2024-03-02T00:44:26;0.67;;;0.47;;
25627;SDS011;40915;50.826;4.356;2024-03-02T00:46:55;0.43;;;0.40;;
25627;SDS011;40915;50.826;4.356;2024-03-02T00:49:22;0.60;;;0.50;;
25627;SDS011;40915;50.826;4.356;2024-03-02T00:51:49;0.60;;;0.43;;
25627;SDS011;40915;50.826;4.356;2024-03-02T00:54:18;1.53;;;0.50;;
25627;SDS011;40915;50.826;4.356;2024-03-02T00:56:44;0.73;;;0.50;;
25627;SDS011;40915;50.826;4.356;2024-03-02T00:59:10;0.43;;;0.30;;
25627;SDS011;40915;50.826;4.356;2024-03-02T01:01:36;1.20;;;0.50;;
25627;SDS011;40915;50.826;4.356;2024-03-02T01:04:02;1.43;;;0.50;;
25627;SDS011;40915;50.826;4.356;2024-03-02T01:06:29;0.60;;;0.40;;
25627;SDS011;40915;50.826;4.356;2024-03-02T01:08:54;1.70;;;0.50;;
25627;SDS011;40915;50.826;4.356;2024-03-02T01:11:20;1.03;;;0.40;;
25627;SDS011;40915;50.826;4.356;2024-03-02T01:13:47;0.90;;;0.40;;
25627;SDS011;40915;50.826;4.356;2024-03-02T01:16:13;0.40;;;0.30;;
25627;SDS011;40915;50.826;4.356;2024-03-02T01:18:40;1.80;;;0.50;;
25627;SDS011;40915;50.826;4.356;2024-03-02T01:21:06;0.40;;;0.30;;
25627;SDS011;40915;50.826;4.356;2024-03-02T01:23:32;4.33;;;0.40;;
25627;SDS011;40915;50.826;4.356;2024-03-02T01:25:58;0.50;;;0.40;;
25627;SDS011;40915;50.826;4.356;2024-03-02T01:28:24;0.63;;;0.47;;
25627;SDS011;40915;50.826;4.356;2024-03-02T01:30:50;1.60;;;0.30;;
25627;SDS011;40915;50.826;4.356;2024-03-02T01:33:17;1.47;;;0.50;;
25627;SDS011;40915;50.826;4.356;2024-03-02T01:35:43;1.03;;;0.40;;
25627;SDS011;40915;50.826;4.356;2024-03-02T01:38:09;1.13;;;0.40;;
25627;SDS011;40915;50.826;4.356;2024-03-02T01:40:35;0.60;;;0.43;;
25627;SDS011;40915;50.826;4.356;2024-03-02T01:43:02;1.57;;;0.40;;
25627;SDS011;40915;50.826;4.356;2024-03-02T01:45:29;1.57;;;0.40;;
25627;SDS011;40915;50.826;4.356;2024-03-02T01:47:55;1.13;;;0.60;;
25627;SDS011;40915;50.826;4.356;2024-03-02T01:50:28;0.70;;;0.30;;
25627;SDS011;40915;50.826;4.356;2024-03-02T01:52:55;1.10;;;0.50;;
25627;SDS011;40915;50.826;4.356;2024-03-02T01:55:21;1.60;;;0.43;;
25627;SDS011;40915;50.826;4.356;2024-03-02T01:57:48;1.90;;;0.50;;
25627;SDS011;40915;50.826;4.356;2024-03-02T02:00:15;2.20;;;0.50;;
25627;SDS011;40915;50.826;4.356;2024-03-02T02:02:41;2.00;;;0.60;;
25627;SDS011;40915;50.826;4.356;2024-03-02T02:05:07;2.97;;;0.80;;
25627;SDS011;40915;50.826;4.356;2024-03-02T02:07:34;1.80;;;0.47;;
25627;SDS011;40915;50.826;4.356;2024-03-02T02:10:00;1.90;;;0.50;;
25627;SDS011;40915;50.826;4.356;2024-03-02T02:12:27;0.70;;;0.40;;
25627;SDS011;40915;50.826;4.356;2024-03-02T02:14:53;2.70;;;0.60;;
25627;SDS011;40915;50.826;4.356;2024-03-02T02:17:19;1.87;;;0.60;;
25627;SDS011;40915;50.826;4.356;2024-03-02T02:19:45;3.17;;;0.60;;
25627;SDS011;40915;50.826;4.356;2024-03-02T02:22:11;2.33;;;0.50;;
25627;SDS011;40915;50.826;4.356;2024-03-02T02:24:40;2.77;;;0.63;;
25627;SDS011;40915;50.826;4.356;2024-03-02T02:27:07;2.17;;;0.50;;
25627;SDS011;40915;50.826;4.356;2024-03-02T02:29:33;1.27;;;0.60;;
25627;SDS011;40915;50.826;4.356;2024-03-02T02:31:59;1.17;;;0.50;;
25627;SDS011;40915;50.826;4.356;2024-03-02T02:34:25;1.80;;;0.77;;
25627;SDS011;40915;50.826;4.356;2024-03-02T02:36:51;3.50;;;0.77;;
25627;SDS011;40915;50.826;4.356;2024-03-02T02:39:17;3.17;;;0.70;;
25627;SDS011;40915;50.826;4.356;2024-03-02T02:41:44;2.53;;;0.50;;
25627;SDS011;40915;50.826;4.356;2024-03-02T02:44:10;0.87;;;0.60;;
25627;SDS011;40915;50.826;4.356;2024-03-02T02:46:38;0.97;;;0.60;;
25627;SDS011;40915;50.826;4.356;2024-03-02T02:49:04;1.33;;;0.50;;
25627;SDS011;40915;50.826;4.356;2024-03-02T02:51:30;1.87;;;0.60;;
25627;SDS011;40915;50.826;4.356;2024-03-02T02:53:56;1.63;;;0.50;;
25627;SDS011;40915;50.826;4.356;2024-03-02T02:56:22;3.17;;;0.80;;
25627;SDS011;40915;50.826;4.356;2024-03-02T02:58:48;2.63;;;0.90;;
25627;SDS011;40915;50.826;4.356;2024-03-02T03:01:17;5.80;;;0.87;;
25627;SDS011;40915;50.826;4.356;2024-03-02T03:03:43;3.70;;;0.50;;
25627;SDS011;40915;50.826;4.356;2024-03-02T03:06:10;1.27;;;0.50;;
25627;SDS011;40915;50.826;4.356;2024-03-02T03:08:36;2.87;;;0.70;;
25627;SDS011;40915;50.826;4.356;2024-03-02T03:11:02;1.37;;;0.63;;
25627;SDS011;40915;50.826;4.356;2024-03-02T03:13:28;1.37;;;0.70;;
25627;SDS011;40915;50.826;4.356;2024-03-02T03:15:54;1.10;;;0.67;;
25627;SDS011;40915;50.826;4.356;2024-03-02T03:18:20;2.40;;;0.77;;
25627;SDS011;40915;50.826;4.356;2024-03-02T03:20:46;3.10;;;0.80;;
25627;SDS011;40915;50.826;4.356;2024-03-02T03:23:12;2.00;;;0.67;;
25627;SDS011;40915;50.826;4.356;2024-03-02T03:25:41;3.43;;;0.63;;
25627;SDS011;40915;50.826;4.356;2024-03-02T03:28:07;2.73;;;0.70;;
25627;SDS011;40915;50.826;4.356;2024-03-02T03:30:35;5.30;;;0.70;;
25627;SDS011;40915;50.826;4.356;2024-03-02T03:33:02;1.10;;;0.53;;
25627;SDS011;40915;50.826;4.356;2024-03-02T03:35:28;1.30;;;0.70;;
25627;SDS011;40915;50.826;4.356;2024-03-02T03:37:54;1.50;;;0.73;;
25627;SDS011;40915;50.826;4.356;2024-03-02T03:40:20;2.43;;;0.70;;
25627;SDS011;40915;50.826;4.356;2024-03-02T03:42:46;1.93;;;0.60;;
25627;SDS011;40915;50.826;4.356;2024-03-02T03:45:11;2.53;;;0.77;;
25627;SDS011;40915;50.826;4.356;2024-03-02T03:47:37;3.80;;;2.20;;
25627;SDS011;40915;50.826;4.356;2024-03-02T03:50:04;2.47;;;0.87;;
25627;SDS011;40915;50.826;4.356;2024-03-02T03:52:32;4.40;;;0.73;;
25627;SDS011;40915;50.826;4.356;2024-03-02T03:54:58;3.03;;;1.00;;
25627;SDS011;40915;50.826;4.356;2024-03-02T03:57:24;1.83;;;0.50;;
25627;SDS011;40915;50.826;4.356;2024-03-02T03:59:51;3.13;;;0.70;;
25627;SDS011;40915;50.826;4.356;2024-03-02T04:02:17;5.70;;;0.70;;
25627;SDS011;40915;50.826;4.356;2024-03-02T04:04:43;1.60;;;0.60;;
25627;SDS011;40915;50.826;4.356;2024-03-02T04:07:09;2.50;;;0.73;;
25627;SDS011;40915;50.826;4.356;2024-03-02T04:09:35;0.67;;;0.60;;
25627;SDS011;40915;50.826;4.356;2024-03-02T04:12:01;6.27;;;1.53;;
25627;SDS011;40915;50.826;4.356;2024-03-02T04:14:27;3.70;;;1.13;;
25627;SDS011;40915;50.826;4.356;2024-03-02T04:16:53;3.93;;;0.80;;
25627;SDS011;40915;50.826;4.356;2024-03-02T04:19:19;3.23;;;0.80;;
25627;SDS011;40915;50.826;4.356;2024-03-02T04:21:45;3.47;;;0.73;;
25627;SDS011;40915;50.826;4.356;2024-03-02T04:24:11;4.70;;;1.10;;
25627;SDS011;40915;50.826;4.356;2024-03-02T04:26:37;1.57;;;0.60;;
25627;SDS011;40915;50.826;4.356;2024-03-02T04:29:03;2.80;;;0.90;;
25627;SDS011;40915;50.826;4.356;2024-03-02T04:31:29;1.30;;;0.63;;
25627;SDS011;40915;50.826;4.356;2024-03-02T04:33:55;3.07;;;0.80;;
25627;SDS011;40915;50.826;4.356;2024-03-02T04:36:20;2.53;;;0.80;;
25627;SDS011;40915;50.826;4.356;2024-03-02T04:38:47;2.97;;;0.80;;
25627;SDS011;40915;50.826;4.356;2024-03-02T04:41:13;1.13;;;0.70;;
25627;SDS011;40915;50.826;4.356;2024-03-02T04:43:39;1.60;;;0.60;;
25627;SDS011;40915;50.826;4.356;2024-03-02T04:46:06;3.10;;;0.77;;
25627;SDS011;40915;50.826;4.356;2024-03-02T04:48:33;4.13;;;0.80;;
25627;SDS011;40915;50.826;4.356;2024-03-02T04:50:59;3.17;;;0.80;;
25627;SDS011;40915;50.826;4.356;2024-03-02T04:53:25;5.53;;;0.80;;
25627;SDS011;40915;50.826;4.356;2024-03-02T04:55:51;3.33;;;0.80;;
25627;SDS011;40915;50.826;4.356;2024-03-02T04:58:53;3.07;;;0.83;;
25627;SDS011;40915;50.826;4.356;2024-03-02T05:01:18;3.63;;;1.10;;
25627;SDS011;40915;50.826;4.356;2024-03-02T05:03:44;6.93;;;0.70;;
25627;SDS011;40915;50.826;4.356;2024-03-02T05:06:10;4.47;;;0.70;;
25627;SDS011;40915;50.826;4.356;2024-03-02T05:08:36;2.40;;;0.77;;
25627;SDS011;40915;50.826;4.356;2024-03-02T05:11:02;4.47;;;0.87;;
25627;SDS011;40915;50.826;4.356;2024-03-02T05:13:47;2.13;;;0.83;;
25627;SDS011;40915;50.826;4.356;2024-03-02T05:16:13;3.97;;;0.73;;
25627;SDS011;40915;50.826;4.356;2024-03-02T05:18:39;4.87;;;1.03;;
25627;SDS011;40915;50.826;4.356;2024-03-02T05:21:05;2.50;;;0.77;;
25627;SDS011;40915;50.826;4.356;2024-03-02T05:23:31;4.90;;;1.10;;
25627;SDS011;40915;50.826;4.356;2024-03-02T05:25:58;4.57;;;1.10;;
25627;SDS011;40915;50.826;4.356;2024-03-02T05:28:24;4.83;;;0.80;;
25627;SDS011;40915;50.826;4.356;2024-03-02T05:30:50;3.43;;;0.60;;
25627;SDS011;40915;50.826;4.356;2024-03-02T05:33:16;1.90;;;0.73;;
25627;SDS011;40915;50.826;4.356;2024-03-02T05:35:43;2.53;;;0.67;;
25627;SDS011;40915;50.826;4.356;2024-03-02T05:38:09;4.33;;;0.73;;
25627;SDS011;40915;50.826;4.356;2024-03-02T05:40:35;6.13;;;1.20;;
25627;SDS011;40915;50.826;4.356;2024-03-02T05:43:01;3.80;;;0.73;;
25627;SDS011;40915;50.826;4.356;2024-03-02T05:45:27;3.87;;;1.03;;
25627;SDS011;40915;50.826;4.356;2024-03-02T05:47:53;4.83;;;1.03;;
25627;SDS011;40915;50.826;4.356;2024-03-02T05:50:19;5.33;;;1.23;;
25627;SDS011;40915;50.826;4.356;2024-03-02T05:52:45;3.50;;;0.90;;
25627;SDS011;40915;50.826;4.356;2024-03-02T05:55:12;4.43;;;0.70;;
25627;SDS011;40915;50.826;4.356;2024-03-02T05:57:37;3.33;;;0.90;;
25627;SDS011;40915;50.826;4.356;2024-03-02T06:00:14;5.83;;;1.03;;
25627;SDS011;40915;50.826;4.356;2024-03-02T06:02:42;3.13;;;1.00;;
25627;SDS011;40915;50.826;4.356;2024-03-02T06:05:07;3.83;;;0.83;;
25627;SDS011;40915;50.826;4.356;2024-03-02T06:07:34;7.30;;;1.27;;
25627;SDS011;40915;50.826;4.356;2024-03-02T06:10:00;4.87;;;0.90;;
25627;SDS011;40915;50.826;4.356;2024-03-02T06:12:26;4.03;;;0.97;;
25627;SDS011;40915;50.826;4.356;2024-03-02T06:14:51;6.27;;;0.90;;
25627;SDS011;40915;50.826;4.356;2024-03-02T06:17:17;3.17;;;0.87;;
25627;SDS011;40915;50.826;4.356;2024-03-02T06:19:44;4.30;;;1.10;;
25627;SDS011;40915;50.826;4.356;2024-03-02T06:22:10;3.60;;;0.90;;
25627;SDS011;40915;50.826;4.356;2024-03-02T06:24:36;5.97;;;0.87;;
25627;SDS011;40915;50.826;4.356;2024-03-02T06:27:05;1.93;;;0.87;;
25627;SDS011;40915;50.826;4.356;2024-03-02T06:29:34;3.97;;;1.00;;
25627;SDS011;40915;50.826;4.356;2024-03-02T06:32:00;2.83;;;1.00;;
25627;SDS011;40915;50.826;4.356;2024-03-02T06:34:26;5.23;;;1.10;;
25627;SDS011;40915;50.826;4.356;2024-03-02T06:36:52;4.63;;;1.00;;
25627;SDS011;40915;50.826;4.356;2024-03-02T06:39:18;3.80;;;0.80;;
25627;SDS011;40915;50.826;4.356;2024-03-02T06:41:44;6.60;;;1.00;;
25627;SDS011;40915;50.826;4.356;2024-03-02T06:44:12;4.03;;;1.17;;
25627;SDS011;40915;50.826;4.356;2024-03-02T06:46:38;3.43;;;0.90;;
25627;SDS011;40915;50.826;4.356;2024-03-02T06:49:04;4.17;;;1.07;;
25627;SDS011;40915;50.826;4.356;2024-03-02T06:51:30;7.47;;;1.20;;
25627;SDS011;40915;50.826;4.356;2024-03-02T06:53:56;6.63;;;1.40;;
25627;SDS011;40915;50.826;4.356;2024-03-02T06:56:22;5.10;;;1.20;;
25627;SDS011;40915;50.826;4.356;2024-03-02T06:58:48;4.57;;;1.37;;
25627;SDS011;40915;50.826;4.356;2024-03-02T07:01:14;6.07;;;1.53;;
25627;SDS011;40915;50.826;4.356;2024-03-02T07:03:40;8.77;;;1.47;;
25627;SDS011;40915;50.826;4.356;2024-03-02T07:06:07;6.70;;;1.30;;
25627;SDS011;40915;50.826;4.356;2024-03-02T07:08:33;6.23;;;1.00;;
25627;SDS011;40915;50.826;4.356;2024-03-02T07:10:59;6.60;;;1.10;;
25627;SDS011;40915;50.826;4.356;2024-03-02T07:13:25;3.23;;;0.97;;
25627;SDS011;40915;50.826;4.356;2024-03-02T07:15:51;8.33;;;1.10;;
25627;SDS011;40915;50.826;4.356;2024-03-02T07:18:36;3.97;;;1.13;;
25627;SDS011;40915;50.826;4.356;2024-03-02T07:21:06;4.53;;;1.03;;
25627;SDS011;40915;50.826;4.356;2024-03-02T07:23:32;3.90;;;1.10;;
25627;SDS011;40915;50.826;4.356;2024-03-02T07:25:58;5.03;;;0.93;;
25627;SDS011;40915;50.826;4.356;2024-03-02T07:28:26;6.87;;;1.40;;
25627;SDS011;40915;50.826;4.356;2024-03-02T07:30:59;7.23;;;1.30;;
25627;SDS011;40915;50.826;4.356;2024-03-02T07:33:25;3.37;;;1.13;;
25627;SDS011;40915;50.826;4.356;2024-03-02T07:35:51;4.70;;;1.23;;
25627;SDS011;40915;50.826;4.356;2024-03-02T07:38:18;3.37;;;1.17;;
25627;SDS011;40915;50.826;4.356;2024-03-02T07:40:44;6.13;;;1.43;;
25627;SDS011;40915;50.826;4.356;2024-03-02T07:43:10;5.27;;;1.30;;
25627;SDS011;40915;50.826;4.356;2024-03-02T07:45:36;5.70;;;1.23;;
25627;SDS011;40915;50.826;4.356;2024-03-02T07:48:02;6.63;;;1.60;;
25627;SDS011;40915;50.826;4.356;2024-03-02T07:50:29;3.63;;;1.03;;
25627;SDS011;40915;50.826;4.356;2024-03-02T07:53:00;5.20;;;1.00;;
25627;SDS011;40915;50.826;4.356;2024-03-02T07:55:26;6.83;;;1.53;;
25627;SDS011;40915;50.826;4.356;2024-03-02T07:57:52;4.27;;;1.07;;
25627;SDS011;40915;50.826;4.356;2024-03-02T08:00:18;6.67;;;1.30;;
25627;SDS011;40915;50.826;4.356;2024-03-02T08:02:44;4.73;;;1.10;;
25627;SDS011;40915;50.826;4.356;2024-03-02T08:05:10;5.10;;;1.00;;
25627;SDS011;40915;50.826;4.356;2024-03-02T08:07:36;5.40;;;1.23;;
25627;SDS011;40915;50.826;4.356;2024-03-02T08:10:02;5.73;;;1.30;;
25627;SDS011;40915;50.826;4.356;2024-03-02T08:12:28;6.07;;;1.37;;
25627;SDS011;40915;50.826;4.356;2024-03-02T08:14:55;7.20;;;1.40;;
25627;SDS011;40915;50.826;4.356;2024-03-02T08:17:21;8.53;;;1.70;;
25627;SDS011;40915;50.826;4.356;2024-03-02T08:19:47;4.30;;;0.90;;
25627;SDS011;40915;50.826;4.356;2024-03-02T08:22:13;4.20;;;1.20;;
25627;SDS011;40915;50.826;4.356;2024-03-02T08:24:40;5.37;;;1.40;;
25627;SDS011;40915;50.826;4.356;2024-03-02T08:27:06;9.03;;;1.23;;
25627;SDS011;40915;50.826;4.356;2024-03-02T08:29:32;5.17;;;1.33;;
25627;SDS011;40915;50.826;4.356;2024-03-02T08:31:58;10.07;;;1.37;;
25627;SDS011;40915;50.826;4.356;2024-03-02T08:34:24;5.73;;;1.53;;
25627;SDS011;40915;50.826;4.356;2024-03-02T08:36:50;7.93;;;1.70;;
25627;SDS011;40915;50.826;4.356;2024-03-02T08:39:16;6.27;;;1.20;;
25627;SDS011;40915;50.826;4.356;2024-03-02T08:41:44;5.10;;;1.20;;
25627;SDS011;40915;50.826;4.356;2024-03-02T08:44:11;9.53;;;1.67;;
25627;SDS011;40915;50.826;4.356;2024-03-02T08:46:37;6.67;;;1.30;;
25627;SDS011;40915;50.826;4.356;2024-03-02T08:49:03;4.57;;;1.43;;
25627;SDS011;40915;50.826;4.356;2024-03-02T08:51:30;6.70;;;1.30;;
25627;SDS011;40915;50.826;4.356;2024-03-02T08:53:56;3.17;;;1.03;;
25627;SDS011;40915;50.826;4.356;2024-03-02T08:56:23;8.17;;;1.20;;
25627;SDS011;40915;50.826;4.356;2024-03-02T08:58:49;5.80;;;1.10;;
25627;SDS011;40915;50.826;4.356;2024-03-02T09:01:16;8.43;;;1.93;;
25627;SDS011;40915;50.826;4.356;2024-03-02T09:03:42;4.10;;;1.20;;
25627;SDS011;40915;50.826;4.356;2024-03-02T09:06:12;7.57;;;1.50;;
25627;SDS011;40915;50.826;4.356;2024-03-02T09:08:38;4.93;;;1.20;;
25627;SDS011;40915;50.826;4.356;2024-03-02T09:11:05;6.93;;;1.23;;
25627;SDS011;40915;50.826;4.356;2024-03-02T09:13:32;9.47;;;1.60;;
25627;SDS011;40915;50.826;4.356;2024-03-02T09:15:58;6.50;;;1.17;;
25627;SDS011;40915;50.826;4.356;2024-03-02T09:18:24;4.43;;;1.00;;
25627;SDS011;40915;50.826;4.356;2024-03-02T09:20:50;6.17;;;1.10;;
25627;SDS011;40915;50.826;4.356;2024-03-02T09:23:16;3.60;;;1.10;;
25627;SDS011;40915;50.826;4.356;2024-03-02T09:25:42;4.83;;;0.97;;
25627;SDS011;40915;50.826;4.356;2024-03-02T09:28:08;5.23;;;1.27;;
25627;SDS011;40915;50.826;4.356;2024-03-02T09:30:34;6.73;;;1.20;;
25627;SDS011;40915;50.826;4.356;2024-03-02T09:33:00;6.17;;;1.60;;
25627;SDS011;40915;50.826;4.356;2024-03-02T09:35:26;6.37;;;1.50;;
25627;SDS011;40915;50.826;4.356;2024-03-02T09:37:52;9.50;;;1.50;;
25627;SDS011;40915;50.826;4.356;2024-03-02T09:40:20;4.87;;;1.13;;
25627;SDS011;40915;50.826;4.356;2024-03-02T09:42:47;10.10;;;1.53;;
25627;SDS011;40915;50.826;4.356;2024-03-02T09:45:18;7.70;;;1.40;;
25627;SDS011;40915;50.826;4.356;2024-03-02T09:47:47;6.57;;;1.10;;
25627;SDS011;40915;50.826;4.356;2024-03-02T09:50:13;6.17;;;1.10;;
25627;SDS011;40915;50.826;4.356;2024-03-02T09:52:39;4.00;;;1.20;;
25627;SDS011;40915;50.826;4.356;2024-03-02T09:55:06;8.43;;;1.70;;
25627;SDS011;40915;50.826;4.356;2024-03-02T09:57:32;4.70;;;1.20;;
25627;SDS011;40915;50.826;4.356;2024-03-02T09:59:58;7.07;;;1.40;;
25627;SDS011;40915;50.826;4.356;2024-03-02T10:02:23;7.20;;;1.33;;
25627;SDS011;40915;50.826;4.356;2024-03-02T10:04:49;3.97;;;1.37;;
25627;SDS011;40915;50.826;4.356;2024-03-02T10:07:16;5.53;;;0.90;;
25627;SDS011;40915;50.826;4.356;2024-03-02T10:09:43;4.87;;;1.00;;
25627;SDS011;40915;50.826;4.356;2024-03-02T10:12:10;8.47;;;1.50;;
25627;SDS011;40915;50.826;4.356;2024-03-02T10:14:39;6.60;;;1.10;;
25627;SDS011;40915;50.826;4.356;2024-03-02T10:17:06;7.53;;;1.73;;
25627;SDS011;40915;50.826;4.356;2024-03-02T10:19:32;4.88;;;1.25;;
25627;SDS011;40915;50.826;4.356;2024-03-02T10:22:00;4.43;;;1.23;;
25627;SDS011;40915;50.826;4.356;2024-03-02T10:24:26;4.93;;;1.10;;
25627;SDS011;40915;50.826;4.356;2024-03-02T10:26:52;4.73;;;1.30;;
25627;SDS011;40915;50.826;4.356;2024-03-02T10:29:19;4.65;;;1.20;;
25627;SDS011;40915;50.826;4.356;2024-03-02T10:31:45;6.15;;;1.52;;
25627;SDS011;40915;50.826;4.356;2024-03-02T10:34:12;8.63;;;2.92;;
25627;SDS011;40915;50.826;4.356;2024-03-02T10:36:42;4.27;;;1.13;;
25627;SDS011;40915;50.826;4.356;2024-03-02T10:39:08;4.72;;;1.00;;
25627;SDS011;40915;50.826;4.356;2024-03-02T10:41:36;11.52;;;1.80;;
25627;SDS011;40915;50.826;4.356;2024-03-02T10:44:11;5.53;;;1.38;;
25627;SDS011;40915;50.826;4.356;2024-03-02T10:46:38;7.40;;;1.38;;
25627;SDS011;40915;50.826;4.356;2024-03-02T10:49:05;5.38;;;1.48;;
25627;SDS011;40915;50.826;4.356;2024-03-02T10:51:32;4.55;;;1.20;;
25627;SDS011;40915;50.826;4.356;2024-03-02T10:53:58;7.95;;;1.00;;
25627;SDS011;40915;50.826;4.356;2024-03-02T10:56:33;5.50;;;1.25;;
25627;SDS011;40915;50.826;4.356;2024-03-02T11:01:25;7.18;;;1.15;;
25627;SDS011;40915;50.826;4.356;2024-03-02T11:03:51;5.32;;;1.67;;
25627;SDS011;40915;50.826;4.356;2024-03-02T11:06:18;5.30;;;1.08;;
25627;SDS011;40915;50.826;4.356;2024-03-02T11:08:44;3.97;;;1.10;;
25627;SDS011;40915;50.826;4.356;2024-03-02T11:11:14;6.13;;;1.20;;
25627;SDS011;40915;50.826;4.356;2024-03-02T11:13:42;7.05;;;1.20;;
25627;SDS011;40915;50.826;4.356;2024-03-02T11:16:11;6.28;;;1.50;;
25627;SDS011;40915;50.826;4.356;2024-03-02T11:18:39;4.60;;;1.27;;
25627;SDS011;40915;50.826;4.356;2024-03-02T11:21:05;4.60;;;1.67;;
25627;SDS011;40915;50.826;4.356;2024-03-02T11:23:32;6.47;;;1.35;;
25627;SDS011;40915;50.826;4.356;2024-03-02T11:28:47;7.65;;;1.80;;
25627;SDS011;40915;50.826;4.356;2024-03-02T11:31:13;14.30;;;2.35;;
25627;SDS011;40915;50.826;4.356;2024-03-02T11:33:39;5.80;;;1.42;;
25627;SDS011;40915;50.826;4.356;2024-03-02T11:36:08;6.85;;;1.20;;
25627;SDS011;40915;50.826;4.356;2024-03-02T11:38:35;9.18;;;1.40;;
25627;SDS011;40915;50.826;4.356;2024-03-02T11:41:10;5.78;;;1.20;;
25627;SDS011;40915;50.826;4.356;2024-03-02T11:43:37;8.10;;;1.98;;
25627;SDS011;40915;50.826;4.356;2024-03-02T11:46:05;7.47;;;1.20;;
25627;SDS011;40915;50.826;4.356;2024-03-02T11:48:38;7.97;;;1.88;;
25627;SDS011;40915;50.826;4.356;2024-03-02T11:51:04;5.32;;;1.40;;
25627;SDS011;40915;50.826;4.356;2024-03-02T11:53:31;5.93;;;1.23;;
25627;SDS011;40915;50.826;4.356;2024-03-02T11:55:58;4.95;;;1.00;;
25627;SDS011;40915;50.826;4.356;2024-03-02T11:58:24;3.60;;;1.08;;
25627;SDS011;40915;50.826;4.356;2024-03-02T12:00:52;2.45;;;0.95;;
25627;SDS011;40915;50.826;4.356;2024-03-02T12:03:18;6.43;;;1.17;;
25627;SDS011;40915;50.826;4.356;2024-03-02T12:05:48;4.97;;;1.00;;
25627;SDS011;40915;50.826;4.356;2024-03-02T12:08:14;6.18;;;1.60;;
25627;SDS011;40915;50.826;4.356;2024-03-02T12:10:40;5.10;;;1.00;;
25627;SDS011;40915;50.826;4.356;2024-03-02T12:13:06;6.07;;;1.50;;
25627;SDS011;40915;50.826;4.356;2024-03-02T12:15:35;4.78;;;1.00;;
25627;SDS011;40915;50.826;4.356;2024-03-02T12:18:05;4.00;;;1.10;;
25627;SDS011;40915;50.826;4.356;2024-03-02T12:20:32;4.45;;;1.30;;
25627;SDS011;40915;50.826;4.356;2024-03-02T12:22:58;4.85;;;1.30;;
25627;SDS011;40915;50.826;4.356;2024-03-02T12:25:25;3.90;;;0.95;;
25627;SDS011;40915;50.826;4.356;2024-03-02T12:27:55;4.07;;;1.35;;
25627;SDS011;40915;50.826;4.356;2024-03-02T12:30:21;5.55;;;1.10;;
25627;SDS011;40915;50.826;4.356;2024-03-02T12:32:48;2.00;;;1.00;;
25627;SDS011;40915;50.826;4.356;2024-03-02T12:35:14;8.30;;;1.50;;
25627;SDS011;40915;50.826;4.356;2024-03-02T12:37:44;4.43;;;1.63;;
25627;SDS011;40915;50.826;4.356;2024-03-02T12:40:10;4.18;;;1.30;;
25627;SDS011;40915;50.826;4.356;2024-03-02T12:42:37;4.30;;;1.20;;
25627;SDS011;40915;50.826;4.356;2024-03-02T12:45:03;5.38;;;1.13;;
25627;SDS011;40915;50.826;4.356;2024-03-02T12:47:29;6.35;;;0.93;;
25627;SDS011;40915;50.826;4.356;2024-03-02T12:49:55;3.70;;;1.20;;
25627;SDS011;40915;50.826;4.356;2024-03-02T12:52:22;4.90;;;1.40;;
25627;SDS011;40915;50.826;4.356;2024-03-02T12:54:48;1.95;;;0.85;;
25627;SDS011;40915;50.826;4.356;2024-03-02T12:57:18;3.38;;;0.68;;
25627;SDS011;40915;50.826;4.356;2024-03-02T12:59:47;5.13;;;1.20;;
25627;SDS011;40915;50.826;4.356;2024-03-02T13:02:17;3.97;;;1.10;;
25627;SDS011;40915;50.826;4.356;2024-03-02T13:04:43;7.07;;;1.08;;
25627;SDS011;40915;50.826;4.356;2024-03-02T13:07:10;4.28;;;0.80;;
25627;SDS011;40915;50.826;4.356;2024-03-02T13:09:38;2.47;;;1.10;;
25627;SDS011;40915;50.826;4.356;2024-03-02T13:12:04;5.65;;;0.98;;
25627;SDS011;40915;50.826;4.356;2024-03-02T13:14:33;2.75;;;0.77;;
25627;SDS011;40915;50.826;4.356;2024-03-02T13:17:00;3.75;;;0.90;;
25627;SDS011;40915;50.826;4.356;2024-03-02T13:19:26;2.53;;;0.90;;
25627;SDS011;40915;50.826;4.356;2024-03-02T13:21:56;5.20;;;1.05;;
25627;SDS011;40915;50.826;4.356;2024-03-02T13:24:22;3.78;;;0.80;;
25627;SDS011;40915;50.826;4.356;2024-03-02T13:26:50;2.90;;;0.90;;
25627;SDS011;40915;50.826;4.356;2024-03-02T13:29:22;4.55;;;1.10;;
25627;SDS011;40915;50.826;4.356;2024-03-02T13:31:48;3.30;;;0.85;;
25627;SDS011;40915;50.826;4.356;2024-03-02T13:34:14;4.57;;;1.50;;
25627;SDS011;40915;50.826;4.356;2024-03-02T13:36:40;6.03;;;1.92;;
25627;SDS011;40915;50.826;4.356;2024-03-02T13:39:06;5.45;;;0.85;;
25627;SDS011;40915;50.826;4.356;2024-03-02T13:41:35;1.80;;;0.73;;
25627;SDS011;40915;50.826;4.356;2024-03-02T13:44:01;2.47;;;0.93;;
25627;SDS011;40915;50.826;4.356;2024-03-02T13:46:28;2.10;;;0.77;;
25627;SDS011;40915;50.826;4.356;2024-03-02T13:48:54;2.25;;;0.95;;
25627;SDS011;40915;50.826;4.356;2024-03-02T13:51:20;4.47;;;0.90;;
25627;SDS011;40915;50.826;4.356;2024-03-02T13:53:46;2.83;;;0.80;;
25627;SDS011;40915;50.826;4.356;2024-03-02T13:56:12;2.28;;;1.00;;
25627;SDS011;40915;50.826;4.356;2024-03-02T13:58:38;2.80;;;0.63;;
25627;SDS011;40915;50.826;4.356;2024-03-02T14:01:05;3.30;;;0.90;;
25627;SDS011;40915;50.826;4.356;2024-03-02T14:03:31;4.43;;;0.90;;
25627;SDS011;40915;50.826;4.356;2024-03-02T14:05:57;3.75;;;1.10;;
25627;SDS011;40915;50.826;4.356;2024-03-02T14:08:23;1.85;;;0.65;;
25627;SDS011;40915;50.826;4.356;2024-03-02T14:10:49;1.50;;;0.70;;
25627;SDS011;40915;50.826;4.356;2024-03-02T14:13:15;2.08;;;0.70;;
25627;SDS011;40915;50.826;4.356;2024-03-02T14:15:42;3.10;;;0.90;;
25627;SDS011;40915;50.826;4.356;2024-03-02T14:18:08;3.45;;;0.73;;
25627;SDS011;40915;50.826;4.356;2024-03-02T14:20:37;2.38;;;0.65;;
25627;SDS011;40915;50.826;4.356;2024-03-02T14:23:03;2.13;;;0.68;;
25627;SDS011;40915;50.826;4.356;2024-03-02T14:25:29;2.47;;;0.85;;
25627;SDS011;40915;50.826;4.356;2024-03-02T14:27:58;2.60;;;0.80;;
25627;SDS011;40915;50.826;4.356;2024-03-02T14:30:24;1.75;;;0.80;;
25627;SDS011;40915;50.826;4.356;2024-03-02T14:32:50;1.77;;;0.80;;
25627;SDS011;40915;50.826;4.356;2024-03-02T14:35:16;2.72;;;0.82;;
25627;SDS011;40915;50.826;4.356;2024-03-02T14:37:42;2.97;;;0.80;;
25627;SDS011;40915;50.826;4.356;2024-03-02T14:40:08;2.15;;;0.90;;
25627;SDS011;40915;50.826;4.356;2024-03-02T14:42:35;2.05;;;0.80;;
25627;SDS011;40915;50.826;4.356;2024-03-02T14:45:02;5.15;;;1.10;;
25627;SDS011;40915;50.826;4.356;2024-03-02T14:47:30;2.25;;;0.90;;
25627;SDS011;40915;50.826;4.356;2024-03-02T14:49:57;5.40;;;1.10;;